82.8°F
Current conditions from King Hill
Updated every 5 minutes
 
  Tuesday September 2, 2014

Station Historical Data
Daily Summary for June 4, 2012 Units:  Both    English   Metric
« Previous Day
Next Day »
Daily Weekly Monthly Yearly Custom
  High: Low: Average:
Temperature: 55.8 °F /  13.2 °C 45.8 °F /  7.7 °C 51.1 °F /  10.6 °C
Dew Point: 50.2 °F /  10.1 °C 42.5 °F /  5.8 °C 46.8 °F /  8.2 °C
Humidity: 95% 73% 85%
Wind Speed: 6.0mph /  9.7km/h - 1.8mph /  2.9km/h
Wind Gust: 15.0mph /  24.1km/h - -
Wind- - NE
Pressure: 29.85 in /  1010.7 hPa 29.65 in /  1003.9 hPa -
Precipitation: 0.16 in /  4.1 mm    
Historical Graphs
 
 
Tabular Data for June 4, 2012
Time Temperature Dew Point Pressure Wind Wind Speed Wind Gust Humidity Daily Rainfall
00:04 52.8 °F /  11.6 °C 45.1 °F /  7.3 °C 29.67in /  1004.6hPa Calm   2.0mph /  3.2km/h 75% 0.00in /  0mm
00:09 52.8 °F /  11.6 °C 44.7 °F /  7.1 °C 29.67in /  1004.6hPa ESE 1.0mph /  1.6km/h 8.0mph /  12.9km/h 74% 0.00in /  0mm
00:14 52.8 °F /  11.6 °C 44.7 °F /  7.1 °C 29.67in /  1004.6hPa ESE 2.0mph /  3.2km/h 8.0mph /  12.9km/h 74% 0.00in /  0mm
00:19 52.8 °F /  11.6 °C 44.7 °F /  7.1 °C 29.67in /  1004.6hPa NNE 1.0mph /  1.6km/h 7.0mph /  11.3km/h 74% 0.00in /  0mm
00:24 52.8 °F /  11.6 °C 44.7 °F /  7.1 °C 29.67in /  1004.6hPa Calm   7.0mph /  11.3km/h 74% 0.00in /  0mm
00:29 52.8 °F /  11.6 °C 44.7 °F /  7.1 °C 29.66in /  1004.3hPa Calm   7.0mph /  11.3km/h 74% 0.00in /  0mm
00:34 52.7 °F /  11.5 °C 45.0 °F /  7.2 °C 29.66in /  1004.3hPa Calm   1.0mph /  1.6km/h 75% 0.00in /  0mm
00:39 52.6 °F /  11.4 °C 45.3 °F /  7.4 °C 29.66in /  1004.3hPa NNE 2.0mph /  3.2km/h 4.0mph /  6.4km/h 76% 0.00in /  0mm
00:44 52.6 °F /  11.4 °C 44.9 °F /  7.2 °C 29.66in /  1004.3hPa ENE 1.0mph /  1.6km/h 7.0mph /  11.3km/h 75% 0.00in /  0mm
00:49 52.5 °F /  11.4 °C 44.8 °F /  7.1 °C 29.66in /  1004.3hPa Calm   7.0mph /  11.3km/h 75% 0.00in /  0mm
00:54 52.4 °F /  11.3 °C 45.4 °F /  7.4 °C 29.66in /  1004.3hPa Calm   2.0mph /  3.2km/h 77% 0.00in /  0mm
00:59 52.2 °F /  11.2 °C 45.6 °F /  7.6 °C 29.66in /  1004.3hPa NNE 1.0mph /  1.6km/h 3.0mph /  4.8km/h 78% 0.00in /  0mm
01:04 51.8 °F /  11 °C 45.8 °F /  7.7 °C 29.66in /  1004.3hPa Calm   3.0mph /  4.8km/h 80% 0.00in /  0mm
01:09 51.5 °F /  10.8 °C 45.9 °F /  7.7 °C 29.66in /  1004.3hPa NNE 1.0mph /  1.6km/h 4.0mph /  6.4km/h 81% 0.01in /  0.3mm
01:14 51.2 °F /  10.7 °C 45.9 °F /  7.7 °C 29.66in /  1004.3hPa Calm   4.0mph /  6.4km/h 82% 0.01in /  0.3mm
01:19 51.0 °F /  10.6 °C 45.7 °F /  7.6 °C 29.66in /  1004.3hPa Calm   1.0mph /  1.6km/h 82% 0.01in /  0.3mm
01:24 50.8 °F /  10.4 °C 45.8 °F /  7.7 °C 29.66in /  1004.3hPa Calm   1.0mph /  1.6km/h 83% 0.01in /  0.3mm
01:29 50.6 °F /  10.3 °C 45.9 °F /  7.7 °C 29.66in /  1004.3hPa Calm   1.0mph /  1.6km/h 84% 0.01in /  0.3mm
01:34 50.4 °F /  10.2 °C 45.8 °F /  7.7 °C 29.66in /  1004.3hPa Calm   3.0mph /  4.8km/h 84% 0.01in /  0.3mm
01:39 50.2 °F /  10.1 °C 45.9 °F /  7.7 °C 29.66in /  1004.3hPa Calm   3.0mph /  4.8km/h 85% 0.01in /  0.3mm
01:44 50.1 °F /  10.1 °C 45.8 °F /  7.7 °C 29.66in /  1004.3hPa Calm   1.0mph /  1.6km/h 85% 0.01in /  0.3mm
01:49 50.0 °F /  10 °C 46.0 °F /  7.8 °C 29.66in /  1004.3hPa Calm   1.0mph /  1.6km/h 86% 0.01in /  0.3mm
01:54 49.9 °F /  9.9 °C 45.9 °F /  7.7 °C 29.66in /  1004.3hPa Calm   2.0mph /  3.2km/h 86% 0.01in /  0.3mm
01:59 49.8 °F /  9.9 °C 45.8 °F /  7.7 °C 29.66in /  1004.3hPa Calm   3.0mph /  4.8km/h 86% 0.01in /  0.3mm
02:04 49.7 °F /  9.8 °C 45.7 °F /  7.6 °C 29.66in /  1004.3hPa Calm   3.0mph /  4.8km/h 86% 0.01in /  0.3mm
02:09 49.6 °F /  9.8 °C 45.9 °F /  7.7 °C 29.65in /  1003.9hPa Calm   1.0mph /  1.6km/h 87% 0.01in /  0.3mm
02:14 49.6 °F /  9.8 °C 45.9 °F /  7.7 °C 29.65in /  1003.9hPa Calm   1.0mph /  1.6km/h 87% 0.01in /  0.3mm
02:19 49.6 °F /  9.8 °C 45.9 °F /  7.7 °C 29.65in /  1003.9hPa Calm     87% 0.01in /  0.3mm
02:24 49.5 °F /  9.7 °C 45.8 °F /  7.7 °C 29.65in /  1003.9hPa Calm     87% 0.02in /  0.5mm
02:29 49.5 °F /  9.7 °C 45.8 °F /  7.7 °C 29.66in /  1004.3hPa Calm   2.0mph /  3.2km/h 87% 0.02in /  0.5mm
02:34 49.4 °F /  9.7 °C 46.0 °F /  7.8 °C 29.66in /  1004.3hPa Calm   2.0mph /  3.2km/h 88% 0.02in /  0.5mm
02:39 49.3 °F /  9.6 °C 45.9 °F /  7.7 °C 29.66in /  1004.3hPa Calm   1.0mph /  1.6km/h 88% 0.02in /  0.5mm
02:44 49.3 °F /  9.6 °C 45.9 °F /  7.7 °C 29.66in /  1004.3hPa Calm     88% 0.03in /  0.8mm
02:49 49.2 °F /  9.6 °C 45.8 °F /  7.7 °C 29.66in /  1004.3hPa NNE 1.0mph /  1.6km/h 3.0mph /  4.8km/h 88% 0.03in /  0.8mm
02:54 49.2 °F /  9.6 °C 45.8 °F /  7.7 °C 29.65in /  1003.9hPa NNE 1.0mph /  1.6km/h 3.0mph /  4.8km/h 88% 0.03in /  0.8mm
02:59 49.2 °F /  9.6 °C 46.1 °F /  7.8 °C 29.65in /  1003.9hPa Calm   3.0mph /  4.8km/h 89% 0.03in /  0.8mm
03:04 49.1 °F /  9.5 °C 46.0 °F /  7.8 °C 29.66in /  1004.3hPa Calm   1.0mph /  1.6km/h 89% 0.03in /  0.8mm
03:09 49.1 °F /  9.5 °C 46.0 °F /  7.8 °C 29.66in /  1004.3hPa NNE 1.0mph /  1.6km/h 2.0mph /  3.2km/h 89% 0.03in /  0.8mm
03:14 49.0 °F /  9.4 °C 45.9 °F /  7.7 °C 29.66in /  1004.3hPa Calm   2.0mph /  3.2km/h 89% 0.04in /  1mm
03:19 49.0 °F /  9.4 °C 45.9 °F /  7.7 °C 29.66in /  1004.3hPa NNE 1.0mph /  1.6km/h 3.0mph /  4.8km/h 89% 0.04in /  1mm
03:24 48.9 °F /  9.4 °C 45.8 °F /  7.7 °C 29.65in /  1003.9hPa Calm   3.0mph /  4.8km/h 89% 0.04in /  1mm
03:29 48.8 °F /  9.3 °C 45.7 °F /  7.6 °C 29.65in /  1003.9hPa Calm   2.0mph /  3.2km/h 89% 0.05in /  1.3mm
03:34 48.8 °F /  9.3 °C 46.0 °F /  7.8 °C 29.65in /  1003.9hPa Calm   2.0mph /  3.2km/h 90% 0.05in /  1.3mm
03:39 48.8 °F /  9.3 °C 46.0 °F /  7.8 °C 29.65in /  1003.9hPa NNE 1.0mph /  1.6km/h 5.0mph /  8km/h 90% 0.05in /  1.3mm
03:44 48.8 °F /  9.3 °C 46.0 °F /  7.8 °C 29.65in /  1003.9hPa Calm   5.0mph /  8km/h 90% 0.05in /  1.3mm
03:49 48.7 °F /  9.3 °C 45.9 °F /  7.7 °C 29.65in /  1003.9hPa NE 1.0mph /  1.6km/h 4.0mph /  6.4km/h 90% 0.05in /  1.3mm
03:54 48.8 °F /  9.3 °C 46.0 °F /  7.8 °C 29.65in /  1003.9hPa NE 1.0mph /  1.6km/h 4.0mph /  6.4km/h 90% 0.05in /  1.3mm
03:59 48.8 °F /  9.3 °C 46.0 °F /  7.8 °C 29.66in /  1004.3hPa Calm   4.0mph /  6.4km/h 90% 0.05in /  1.3mm
04:04 48.8 °F /  9.3 °C 46.0 °F /  7.8 °C 29.66in /  1004.3hPa NNE 2.0mph /  3.2km/h 4.0mph /  6.4km/h 90% 0.05in /  1.3mm
04:09 48.7 °F /  9.3 °C 45.9 °F /  7.7 °C 29.66in /  1004.3hPa Calm   4.0mph /  6.4km/h 90% 0.05in /  1.3mm
04:14 48.7 °F /  9.3 °C 45.9 °F /  7.7 °C 29.66in /  1004.3hPa NNE 1.0mph /  1.6km/h 3.0mph /  4.8km/h 90% 0.06in /  1.5mm
04:19 48.7 °F /  9.3 °C 45.9 °F /  7.7 °C 29.66in /  1004.3hPa NNE 1.0mph /  1.6km/h 4.0mph /  6.4km/h 90% 0.06in /  1.5mm
04:24 48.7 °F /  9.3 °C 45.9 °F /  7.7 °C 29.66in /  1004.3hPa NNE 2.0mph /  3.2km/h 7.0mph /  11.3km/h 90% 0.06in /  1.5mm
04:29 48.7 °F /  9.3 °C 46.2 °F /  7.9 °C 29.66in /  1004.3hPa Calm   7.0mph /  11.3km/h 91% 0.06in /  1.5mm
04:34 48.7 °F /  9.3 °C 46.2 °F /  7.9 °C 29.66in /  1004.3hPa Calm   3.0mph /  4.8km/h 91% 0.07in /  1.8mm
04:39 48.7 °F /  9.3 °C 46.2 °F /  7.9 °C 29.66in /  1004.3hPa Calm   2.0mph /  3.2km/h 91% 0.07in /  1.8mm
04:44 48.7 °F /  9.3 °C 46.2 °F /  7.9 °C 29.66in /  1004.3hPa ENE 1.0mph /  1.6km/h 5.0mph /  8km/h 91% 0.07in /  1.8mm
04:49 48.6 °F /  9.2 °C 46.1 °F /  7.8 °C 29.66in /  1004.3hPa Calm   5.0mph /  8km/h 91% 0.07in /  1.8mm
04:54 48.6 °F /  9.2 °C 46.1 °F /  7.8 °C 29.66in /  1004.3hPa Calm   5.0mph /  8km/h 91% 0.08in /  2mm
04:59 48.6 °F /  9.2 °C 46.1 °F /  7.8 °C 29.66in /  1004.3hPa Calm   5.0mph /  8km/h 91% 0.08in /  2mm
05:04 48.6 °F /  9.2 °C 46.1 °F /  7.8 °C 29.66in /  1004.3hPa Calm   1.0mph /  1.6km/h 91% 0.09in /  2.3mm
05:09 48.5 °F /  9.2 °C 46.0 °F /  7.8 °C 29.67in /  1004.6hPa Calm   1.0mph /  1.6km/h 91% 0.09in /  2.3mm
05:14 48.5 °F /  9.2 °C 46.0 °F /  7.8 °C 29.67in /  1004.6hPa Calm   1.0mph /  1.6km/h 91% 0.09in /  2.3mm
05:19 48.5 °F /  9.2 °C 46.0 °F /  7.8 °C 29.67in /  1004.6hPa Calm   1.0mph /  1.6km/h 91% 0.09in /  2.3mm
05:24 48.5 °F /  9.2 °C 46.0 °F /  7.8 °C 29.67in /  1004.6hPa Calm   2.0mph /  3.2km/h 91% 0.09in /  2.3mm
05:29 48.5 °F /  9.2 °C 46.3 °F /  7.9 °C 29.67in /  1004.6hPa Calm   4.0mph /  6.4km/h 92% 0.10in /  2.5mm
05:34 48.5 °F /  9.2 °C 46.3 °F /  7.9 °C 29.67in /  1004.6hPa Calm   4.0mph /  6.4km/h 92% 0.10in /  2.5mm
05:39 48.5 °F /  9.2 °C 46.3 °F /  7.9 °C 29.67in /  1004.6hPa NE 1.0mph /  1.6km/h 4.0mph /  6.4km/h 92% 0.11in /  2.8mm
05:44 48.5 °F /  9.2 °C 46.3 °F /  7.9 °C 29.67in /  1004.6hPa Calm   4.0mph /  6.4km/h 92% 0.11in /  2.8mm
05:49 48.5 °F /  9.2 °C 46.3 °F /  7.9 °C 29.67in /  1004.6hPa Calm   2.0mph /  3.2km/h 92% 0.11in /  2.8mm
05:54 48.5 °F /  9.2 °C 46.3 °F /  7.9 °C 29.67in /  1004.6hPa NE 1.0mph /  1.6km/h 3.0mph /  4.8km/h 92% 0.11in /  2.8mm
05:59 48.5 °F /  9.2 °C 46.3 °F /  7.9 °C 29.67in /  1004.6hPa Calm   3.0mph /  4.8km/h 92% 0.11in /  2.8mm
06:04 48.5 °F /  9.2 °C 46.6 °F /  8.1 °C 29.67in /  1004.6hPa Calm   1.0mph /  1.6km/h 93% 0.11in /  2.8mm
06:09 48.6 °F /  9.2 °C 46.7 °F /  8.2 °C 29.68in /  1005hPa Calm   1.0mph /  1.6km/h 93% 0.11in /  2.8mm
06:14 48.6 °F /  9.2 °C 46.7 °F /  8.2 °C 29.68in /  1005hPa NE 1.0mph /  1.6km/h 3.0mph /  4.8km/h 93% 0.12in /  3mm
06:19 48.6 °F /  9.2 °C 46.7 °F /  8.2 °C 29.68in /  1005hPa Calm   3.0mph /  4.8km/h 93% 0.12in /  3mm
06:24 48.7 °F /  9.3 °C 46.8 °F /  8.2 °C 29.68in /  1005hPa Calm   3.0mph /  4.8km/h 93% 0.12in /  3mm
06:29 48.8 °F /  9.3 °C 46.9 °F /  8.3 °C 29.68in /  1005hPa Calm   3.0mph /  4.8km/h 93% 0.13in /  3.3mm
06:34 48.9 °F /  9.4 °C 47.0 °F /  8.3 °C 29.68in /  1005hPa Calm   4.0mph /  6.4km/h 93% 0.13in /  3.3mm
06:39 49.0 °F /  9.4 °C 47.3 °F /  8.5 °C 29.68in /  1005hPa NNW 1.0mph /  1.6km/h 4.0mph /  6.4km/h 94% 0.13in /  3.3mm
06:44 49.0 °F /  9.4 °C 47.3 °F /  8.5 °C 29.68in /  1005hPa Calm   3.0mph /  4.8km/h 94% 0.13in /  3.3mm
06:49 49.1 °F /  9.5 °C 47.4 °F /  8.6 °C 29.69in /  1005.3hPa Calm   4.0mph /  6.4km/h 94% 0.13in /  3.3mm
06:54 49.0 °F /  9.4 °C 47.3 °F /  8.5 °C 29.69in /  1005.3hPa NNE 1.0mph /  1.6km/h 4.0mph /  6.4km/h 94% 0.13in /  3.3mm
06:59 49.0 °F /  9.4 °C 47.3 °F /  8.5 °C 29.69in /  1005.3hPa Calm   3.0mph /  4.8km/h 94% 0.13in /  3.3mm
07:04 49.1 °F /  9.5 °C 47.4 °F /  8.6 °C 29.69in /  1005.3hPa Calm   4.0mph /  6.4km/h 94% 0.13in /  3.3mm
07:09 49.2 °F /  9.6 °C 47.5 °F /  8.6 °C 29.69in /  1005.3hPa NNE 1.0mph /  1.6km/h 4.0mph /  6.4km/h 94% 0.13in /  3.3mm
07:14 49.2 °F /  9.6 °C 47.5 °F /  8.6 °C 29.69in /  1005.3hPa NNE 1.0mph /  1.6km/h 4.0mph /  6.4km/h 94% 0.13in /  3.3mm
07:19 49.2 °F /  9.6 °C 47.5 °F /  8.6 °C 29.69in /  1005.3hPa Calm   4.0mph /  6.4km/h 94% 0.13in /  3.3mm
07:24 49.4 °F /  9.7 °C 47.7 °F /  8.7 °C 29.69in /  1005.3hPa NNE 1.0mph /  1.6km/h 4.0mph /  6.4km/h 94% 0.13in /  3.3mm
07:29 49.4 °F /  9.7 °C 47.7 °F /  8.7 °C 29.69in /  1005.3hPa Calm   4.0mph /  6.4km/h 94% 0.13in /  3.3mm
07:34 49.4 °F /  9.7 °C 47.7 °F /  8.7 °C 29.69in /  1005.3hPa Calm   4.0mph /  6.4km/h 94% 0.14in /  3.6mm
07:39 49.4 °F /  9.7 °C 47.7 °F /  8.7 °C 29.69in /  1005.3hPa Calm   4.0mph /  6.4km/h 94% 0.14in /  3.6mm
07:44 49.4 °F /  9.7 °C 47.7 °F /  8.7 °C 29.69in /  1005.3hPa Calm   3.0mph /  4.8km/h 94% 0.14in /  3.6mm
07:49 49.4 °F /  9.7 °C 47.7 °F /  8.7 °C 29.70in /  1005.6hPa NE 1.0mph /  1.6km/h 3.0mph /  4.8km/h 94% 0.14in /  3.6mm
07:54 49.4 °F /  9.7 °C 47.7 °F /  8.7 °C 29.70in /  1005.6hPa NNW 1.0mph /  1.6km/h 3.0mph /  4.8km/h 94% 0.14in /  3.6mm
07:59 49.4 °F /  9.7 °C 47.7 °F /  8.7 °C 29.70in /  1005.6hPa NNE 2.0mph /  3.2km/h 5.0mph /  8km/h 94% 0.14in /  3.6mm
08:04 49.4 °F /  9.7 °C 47.7 °F /  8.7 °C 29.70in /  1005.6hPa Calm   5.0mph /  8km/h 94% 0.14in /  3.6mm
08:09 49.4 °F /  9.7 °C 47.7 °F /  8.7 °C 29.70in /  1005.6hPa Calm     94% 0.14in /  3.6mm
08:14 49.5 °F /  9.7 °C 47.8 °F /  8.8 °C 29.70in /  1005.6hPa NNE 1.0mph /  1.6km/h 4.0mph /  6.4km/h 94% 0.14in /  3.6mm
08:19 49.6 °F /  9.8 °C 47.9 °F /  8.8 °C 29.70in /  1005.6hPa Calm   4.0mph /  6.4km/h 94% 0.14in /  3.6mm
08:24 49.7 °F /  9.8 °C 48.0 °F /  8.9 °C 29.70in /  1005.6hPa NNE 2.0mph /  3.2km/h 5.0mph /  8km/h 94% 0.14in /  3.6mm
08:29 49.7 °F /  9.8 °C 48.0 °F /  8.9 °C 29.70in /  1005.6hPa Calm   5.0mph /  8km/h 94% 0.14in /  3.6mm
08:34 49.7 °F /  9.8 °C 48.0 °F /  8.9 °C 29.70in /  1005.6hPa Calm   4.0mph /  6.4km/h 94% 0.14in /  3.6mm
08:39 49.7 °F /  9.8 °C 48.0 °F /  8.9 °C 29.71in /  1006hPa Calm   4.0mph /  6.4km/h 94% 0.14in /  3.6mm
08:44 49.8 °F /  9.9 °C 48.1 °F /  8.9 °C 29.71in /  1006hPa Calm   3.0mph /  4.8km/h 94% 0.14in /  3.6mm
08:49 50.0 °F /  10 °C 48.3 °F /  9.1 °C 29.71in /  1006hPa Calm   5.0mph /  8km/h 94% 0.14in /  3.6mm
08:54 50.2 °F /  10.1 °C 48.5 °F /  9.2 °C 29.71in /  1006hPa NE 1.0mph /  1.6km/h 5.0mph /  8km/h 94% 0.14in /  3.6mm
08:59 50.4 °F /  10.2 °C 48.7 °F /  9.3 °C 29.71in /  1006hPa Calm   5.0mph /  8km/h 94% 0.14in /  3.6mm
09:04 50.7 °F /  10.4 °C 49.3 °F /  9.6 °C 29.70in /  1005.6hPa Calm   4.0mph /  6.4km/h 95% 0.14in /  3.6mm
09:09 51.0 °F /  10.6 °C 49.3 °F /  9.6 °C 29.71in /  1006hPa Calm   5.0mph /  8km/h 94% 0.14in /  3.6mm
09:14 51.2 °F /  10.7 °C 49.5 °F /  9.7 °C 29.71in /  1006hPa NE 1.0mph /  1.6km/h 5.0mph /  8km/h 94% 0.14in /  3.6mm
09:19 51.5 °F /  10.8 °C 49.8 °F /  9.9 °C 29.71in /  1006hPa ENE 1.0mph /  1.6km/h 5.0mph /  8km/h 94% 0.14in /  3.6mm
09:24 51.9 °F /  11.1 °C 50.2 °F /  10.1 °C 29.71in /  1006hPa NNE 2.0mph /  3.2km/h 9.0mph /  14.5km/h 94% 0.14in /  3.6mm
09:29 51.9 °F /  11.1 °C 50.2 °F /  10.1 °C 29.72in /  1006.3hPa NNE 2.0mph /  3.2km/h 9.0mph /  14.5km/h 94% 0.14in /  3.6mm
09:34 51.7 °F /  10.9 °C 49.7 °F /  9.8 °C 29.72in /  1006.3hPa NNE 1.0mph /  1.6km/h 8.0mph /  12.9km/h 93% 0.14in /  3.6mm
09:39 51.8 °F /  11 °C 49.3 °F /  9.6 °C 29.72in /  1006.3hPa NE 2.0mph /  3.2km/h 8.0mph /  12.9km/h 91% 0.14in /  3.6mm
09:44 51.9 °F /  11.1 °C 49.4 °F /  9.7 °C 29.71in /  1006hPa Calm   7.0mph /  11.3km/h 91% 0.14in /  3.6mm
09:49 52.1 °F /  11.2 °C 49.3 °F /  9.6 °C 29.72in /  1006.3hPa NNE 4.0mph /  6.4km/h 10.0mph /  16.1km/h 90% 0.14in /  3.6mm
09:54 52.1 °F /  11.2 °C 49.0 °F /  9.4 °C 29.72in /  1006.3hPa NNE 2.0mph /  3.2km/h 12.0mph /  19.3km/h 89% 0.14in /  3.6mm
09:59 52.3 °F /  11.3 °C 48.9 °F /  9.4 °C 29.72in /  1006.3hPa ENE 2.0mph /  3.2km/h 12.0mph /  19.3km/h 88% 0.14in /  3.6mm
10:04 52.8 °F /  11.6 °C 49.3 °F /  9.6 °C 29.72in /  1006.3hPa NNE 2.0mph /  3.2km/h 9.0mph /  14.5km/h 88% 0.14in /  3.6mm
10:09 53.0 °F /  11.7 °C 48.6 °F /  9.2 °C 29.72in /  1006.3hPa NE 2.0mph /  3.2km/h 10.0mph /  16.1km/h 85% 0.14in /  3.6mm
10:14 53.1 °F /  11.7 °C 48.7 °F /  9.3 °C 29.73in /  1006.7hPa ENE 1.0mph /  1.6km/h 11.0mph /  17.7km/h 85% 0.14in /  3.6mm
10:19 53.1 °F /  11.7 °C 48.7 °F /  9.3 °C 29.73in /  1006.7hPa Calm   11.0mph /  17.7km/h 85% 0.14in /  3.6mm
10:24 53.2 °F /  11.8 °C 48.8 °F /  9.3 °C 29.73in /  1006.7hPa NE 1.0mph /  1.6km/h 7.0mph /  11.3km/h 85% 0.14in /  3.6mm
10:29 53.3 °F /  11.8 °C 48.9 °F /  9.4 °C 29.73in /  1006.7hPa Calm   7.0mph /  11.3km/h 85% 0.14in /  3.6mm
10:34 53.2 °F /  11.8 °C 48.2 °F /  9 °C 29.73in /  1006.7hPa NE 3.0mph /  4.8km/h 13.0mph /  20.9km/h 83% 0.14in /  3.6mm
10:39 53.2 °F /  11.8 °C 48.5 °F /  9.2 °C 29.73in /  1006.7hPa NNE 1.0mph /  1.6km/h 13.0mph /  20.9km/h 84% 0.14in /  3.6mm
10:44 53.4 °F /  11.9 °C 49.0 °F /  9.4 °C 29.73in /  1006.7hPa NNE 1.0mph /  1.6km/h 8.0mph /  12.9km/h 85% 0.14in /  3.6mm
10:49 53.2 °F /  11.8 °C 48.2 °F /  9 °C 29.74in /  1007hPa NE 3.0mph /  4.8km/h 10.0mph /  16.1km/h 83% 0.14in /  3.6mm
10:54 52.9 °F /  11.6 °C 47.6 °F /  8.7 °C 29.74in /  1007hPa NE 1.0mph /  1.6km/h 10.0mph /  16.1km/h 82% 0.14in /  3.6mm
10:59 52.8 °F /  11.6 °C 47.5 °F /  8.6 °C 29.74in /  1007hPa NE 3.0mph /  4.8km/h 15.0mph /  24.1km/h 82% 0.14in /  3.6mm
11:04 52.8 °F /  11.6 °C 47.5 °F /  8.6 °C 29.74in /  1007hPa NNE 3.0mph /  4.8km/h 15.0mph /  24.1km/h 82% 0.14in /  3.6mm
11:09 52.8 °F /  11.6 °C 47.5 °F /  8.6 °C 29.74in /  1007hPa East 1.0mph /  1.6km/h 10.0mph /  16.1km/h 82% 0.14in /  3.6mm
11:14 52.7 °F /  11.5 °C 47.4 °F /  8.6 °C 29.74in /  1007hPa NE 4.0mph /  6.4km/h 11.0mph /  17.7km/h 82% 0.14in /  3.6mm
11:19 52.7 °F /  11.5 °C 47.4 °F /  8.6 °C 29.74in /  1007hPa East 2.0mph /  3.2km/h 11.0mph /  17.7km/h 82% 0.14in /  3.6mm
11:24 52.9 °F /  11.6 °C 47.9 °F /  8.8 °C 29.74in /  1007hPa ENE 1.0mph /  1.6km/h 11.0mph /  17.7km/h 83% 0.14in /  3.6mm
11:29 53.3 °F /  11.8 °C 48.3 °F /  9.1 °C 29.74in /  1007hPa NNE 2.0mph /  3.2km/h 8.0mph /  12.9km/h 83% 0.14in /  3.6mm
11:34 53.3 °F /  11.8 °C 47.6 °F /  8.7 °C 29.75in /  1007.3hPa NNE 2.0mph /  3.2km/h 7.0mph /  11.3km/h 81% 0.14in /  3.6mm
11:39 53.5 °F /  11.9 °C 47.8 °F /  8.8 °C 29.75in /  1007.3hPa NNE 1.0mph /  1.6km/h 10.0mph /  16.1km/h 81% 0.14in /  3.6mm
11:44 53.7 °F /  12.1 °C 48.0 °F /  8.9 °C 29.75in /  1007.3hPa NE 2.0mph /  3.2km/h 11.0mph /  17.7km/h 81% 0.14in /  3.6mm
11:49 53.9 °F /  12.2 °C 48.2 °F /  9 °C 29.75in /  1007.3hPa NE 3.0mph /  4.8km/h 11.0mph /  17.7km/h 81% 0.14in /  3.6mm
11:54 54.0 °F /  12.2 °C 48.6 °F /  9.2 °C 29.75in /  1007.3hPa NE 3.0mph /  4.8km/h 9.0mph /  14.5km/h 82% 0.14in /  3.6mm
11:59 53.9 °F /  12.2 °C 47.9 °F /  8.8 °C 29.75in /  1007.3hPa ENE 1.0mph /  1.6km/h 9.0mph /  14.5km/h 80% 0.14in /  3.6mm
12:04 53.9 °F /  12.2 °C 48.2 °F /  9 °C 29.75in /  1007.3hPa NNE 2.0mph /  3.2km/h 9.0mph /  14.5km/h 81% 0.14in /  3.6mm
12:09 53.9 °F /  12.2 °C 48.2 °F /  9 °C 29.75in /  1007.3hPa Calm   8.0mph /  12.9km/h 81% 0.14in /  3.6mm
12:14 53.9 °F /  12.2 °C 48.2 °F /  9 °C 29.75in /  1007.3hPa NNE 3.0mph /  4.8km/h 10.0mph /  16.1km/h 81% 0.14in /  3.6mm
12:19 54.1 °F /  12.3 °C 48.1 °F /  8.9 °C 29.75in /  1007.3hPa NNE 2.0mph /  3.2km/h 10.0mph /  16.1km/h 80% 0.14in /  3.6mm
12:24 54.0 °F /  12.2 °C 47.6 °F /  8.7 °C 29.75in /  1007.3hPa NNE 2.0mph /  3.2km/h 8.0mph /  12.9km/h 79% 0.14in /  3.6mm
12:29 53.9 °F /  12.2 °C 47.9 °F /  8.8 °C 29.75in /  1007.3hPa North 1.0mph /  1.6km/h 8.0mph /  12.9km/h 80% 0.14in /  3.6mm
12:34 53.9 °F /  12.2 °C 47.2 °F /  8.4 °C 29.75in /  1007.3hPa NNE 3.0mph /  4.8km/h 9.0mph /  14.5km/h 78% 0.14in /  3.6mm
12:39 54.6 °F /  12.6 °C 48.6 °F /  9.2 °C 29.76in /  1007.7hPa ENE 1.0mph /  1.6km/h 9.0mph /  14.5km/h 80% 0.14in /  3.6mm
12:44 55.0 °F /  12.8 °C 48.3 °F /  9.1 °C 29.76in /  1007.7hPa ESE 1.0mph /  1.6km/h 8.0mph /  12.9km/h 78% 0.14in /  3.6mm
12:49 55.2 °F /  12.9 °C 48.8 °F /  9.3 °C 29.76in /  1007.7hPa NE 1.0mph /  1.6km/h 8.0mph /  12.9km/h 79% 0.14in /  3.6mm
12:54 55.1 °F /  12.8 °C 48.4 °F /  9.1 °C 29.76in /  1007.7hPa Calm   8.0mph /  12.9km/h 78% 0.14in /  3.6mm
12:59 55.3 °F /  12.9 °C 47.9 °F /  8.8 °C 29.76in /  1007.7hPa Calm   12.0mph /  19.3km/h 76% 0.14in /  3.6mm
13:04 55.5 °F /  13.1 °C 47.7 °F /  8.7 °C 29.76in /  1007.7hPa NNE 2.0mph /  3.2km/h 12.0mph /  19.3km/h 75% 0.14in /  3.6mm
13:09 55.5 °F /  13.1 °C 47.4 °F /  8.6 °C 29.76in /  1007.7hPa NE 3.0mph /  4.8km/h 8.0mph /  12.9km/h 74% 0.14in /  3.6mm
13:14 55.8 °F /  13.2 °C 47.6 °F /  8.7 °C 29.77in /  1008hPa Calm   8.0mph /  12.9km/h 74% 0.14in /  3.6mm
13:19 55.7 °F /  13.2 °C 47.5 °F /  8.6 °C 29.76in /  1007.7hPa ENE 2.0mph /  3.2km/h 9.0mph /  14.5km/h 74% 0.14in /  3.6mm
13:24 55.5 °F /  13.1 °C 47.0 °F /  8.3 °C 29.77in /  1008hPa NE 4.0mph /  6.4km/h 11.0mph /  17.7km/h 73% 0.14in /  3.6mm
13:29 55.4 °F /  13 °C 47.3 °F /  8.5 °C 29.77in /  1008hPa SE 1.0mph /  1.6km/h 11.0mph /  17.7km/h 74% 0.14in /  3.6mm
13:34 55.3 °F /  12.9 °C 47.5 °F /  8.6 °C 29.77in /  1008hPa Calm   9.0mph /  14.5km/h 75% 0.14in /  3.6mm
13:39 55.2 °F /  12.9 °C 47.8 °F /  8.8 °C 29.77in /  1008hPa Calm   4.0mph /  6.4km/h 76% 0.14in /  3.6mm
13:44 54.8 °F /  12.7 °C 47.4 °F /  8.6 °C 29.77in /  1008hPa NNE 2.0mph /  3.2km/h 10.0mph /  16.1km/h 76% 0.14in /  3.6mm
13:49 54.3 °F /  12.4 °C 47.3 °F /  8.5 °C 29.77in /  1008hPa NNE 2.0mph /  3.2km/h 10.0mph /  16.1km/h 77% 0.14in /  3.6mm
13:54 54.2 °F /  12.3 °C 47.8 °F /  8.8 °C 29.77in /  1008hPa Calm   8.0mph /  12.9km/h 79% 0.15in /  3.8mm
14:04 54.0 °F /  12.2 °C 48.0 °F /  8.9 °C 29.78in /  1008.4hPa Calm   6.0mph /  9.7km/h 80% 0.15in /  3.8mm
14:09 53.6 °F /  12 °C 47.3 °F /  8.5 °C 29.78in /  1008.4hPa NE 2.0mph /  3.2km/h 7.0mph /  11.3km/h 79% 0.15in /  3.8mm
14:14 53.3 °F /  11.8 °C 47.3 °F /  8.5 °C 29.78in /  1008.4hPa Calm   9.0mph /  14.5km/h 80% 0.15in /  3.8mm
14:19 53.1 °F /  11.7 °C 47.8 °F /  8.8 °C 29.78in /  1008.4hPa NNE 1.0mph /  1.6km/h 9.0mph /  14.5km/h 82% 0.15in /  3.8mm
14:24 53.0 °F /  11.7 °C 48.0 °F /  8.9 °C 29.78in /  1008.4hPa Calm   5.0mph /  8km/h 83% 0.15in /  3.8mm
14:29 53.3 °F /  11.8 °C 48.9 °F /  9.4 °C 29.78in /  1008.4hPa North 1.0mph /  1.6km/h 5.0mph /  8km/h 85% 0.15in /  3.8mm
14:34 53.8 °F /  12.1 °C 49.7 °F /  9.8 °C 29.78in /  1008.4hPa NNE 1.0mph /  1.6km/h 6.0mph /  9.7km/h 86% 0.15in /  3.8mm
14:39 54.2 °F /  12.3 °C 49.8 °F /  9.9 °C 29.78in /  1008.4hPa NNE 4.0mph /  6.4km/h 8.0mph /  12.9km/h 85% 0.15in /  3.8mm
14:44 54.5 °F /  12.5 °C 49.1 °F /  9.5 °C 29.78in /  1008.4hPa NNE 2.0mph /  3.2km/h 8.0mph /  12.9km/h 82% 0.15in /  3.8mm
14:49 55.0 °F /  12.8 °C 49.6 °F /  9.8 °C 29.78in /  1008.4hPa East 2.0mph /  3.2km/h 8.0mph /  12.9km/h 82% 0.15in /  3.8mm
14:54 55.3 °F /  12.9 °C 49.6 °F /  9.8 °C 29.78in /  1008.4hPa Calm   7.0mph /  11.3km/h 81% 0.15in /  3.8mm
15:00 55.1 °F /  12.8 °C 49.4 °F /  9.7 °C 29.78in /  1008.4hPa NE 1.0mph /  1.6km/h 9.0mph /  14.5km/h 81% 0.15in /  3.8mm
15:09 54.6 °F /  12.6 °C 49.5 °F /  9.7 °C 29.78in /  1008.4hPa NE 2.0mph /  3.2km/h 8.0mph /  12.9km/h 83% 0.15in /  3.8mm
15:14 54.2 °F /  12.3 °C 49.5 °F /  9.7 °C 29.78in /  1008.4hPa NNE 1.0mph /  1.6km/h 9.0mph /  14.5km/h 84% 0.16in /  4.1mm
15:19 53.6 °F /  12 °C 48.9 °F /  9.4 °C 29.79in /  1008.7hPa NE 2.0mph /  3.2km/h 9.0mph /  14.5km/h 84% 0.16in /  4.1mm
15:24 53.0 °F /  11.7 °C 48.3 °F /  9.1 °C 29.79in /  1008.7hPa NE 1.0mph /  1.6km/h 9.0mph /  14.5km/h 84% 0.16in /  4.1mm
15:29 52.7 °F /  11.5 °C 48.3 °F /  9.1 °C 29.80in /  1009hPa NNE 2.0mph /  3.2km/h 7.0mph /  11.3km/h 85% 0.16in /  4.1mm
15:34 52.6 °F /  11.4 °C 48.5 °F /  9.2 °C 29.80in /  1009hPa Calm   7.0mph /  11.3km/h 86% 0.16in /  4.1mm
15:39 52.6 °F /  11.4 °C 48.5 °F /  9.2 °C 29.80in /  1009hPa NE 4.0mph /  6.4km/h 11.0mph /  17.7km/h 86% 0.16in /  4.1mm
15:44 52.8 °F /  11.6 °C 48.7 °F /  9.3 °C 29.80in /  1009hPa NE 1.0mph /  1.6km/h 11.0mph /  17.7km/h 86% 0.16in /  4.1mm
15:49 52.9 °F /  11.6 °C 48.5 °F /  9.2 °C 29.80in /  1009hPa NE 2.0mph /  3.2km/h 10.0mph /  16.1km/h 85% 0.16in /  4.1mm
15:54 52.7 °F /  11.5 °C 48.3 °F /  9.1 °C 29.80in /  1009hPa Calm   10.0mph /  16.1km/h 85% 0.16in /  4.1mm
15:59 52.6 °F /  11.4 °C 48.2 °F /  9 °C 29.80in /  1009hPa NE 4.0mph /  6.4km/h 13.0mph /  20.9km/h 85% 0.16in /  4.1mm
16:04 52.3 °F /  11.3 °C 47.9 °F /  8.8 °C 29.80in /  1009hPa NNE 2.0mph /  3.2km/h 13.0mph /  20.9km/h 85% 0.16in /  4.1mm
16:09 52.3 °F /  11.3 °C 47.9 °F /  8.8 °C 29.80in /  1009hPa North 3.0mph /  4.8km/h 9.0mph /  14.5km/h 85% 0.16in /  4.1mm
16:14 52.3 °F /  11.3 °C 47.9 °F /  8.8 °C 29.80in /  1009hPa NNE 3.0mph /  4.8km/h 9.0mph /  14.5km/h 85% 0.16in /  4.1mm
16:19 52.4 °F /  11.3 °C 48.3 °F /  9.1 °C 29.80in /  1009hPa NNE 2.0mph /  3.2km/h 9.0mph /  14.5km/h 86% 0.16in /  4.1mm
16:24 52.6 °F /  11.4 °C 48.5 °F /  9.2 °C 29.80in /  1009hPa NE 1.0mph /  1.6km/h 8.0mph /  12.9km/h 86% 0.16in /  4.1mm
16:29 52.9 °F /  11.6 °C 48.8 °F /  9.3 °C 29.80in /  1009hPa NNE 2.0mph /  3.2km/h 8.0mph /  12.9km/h 86% 0.16in /  4.1mm
16:34 53.4 °F /  11.9 °C 49.6 °F /  9.8 °C 29.80in /  1009hPa Calm   6.0mph /  9.7km/h 87% 0.16in /  4.1mm
16:39 53.6 °F /  12 °C 49.5 °F /  9.7 °C 29.80in /  1009hPa Calm   5.0mph /  8km/h 86% 0.16in /  4.1mm
16:44 53.6 °F /  12 °C 48.9 °F /  9.4 °C 29.80in /  1009hPa NNE 3.0mph /  4.8km/h 7.0mph /  11.3km/h 84% 0.16in /  4.1mm
16:49 53.5 °F /  11.9 °C 48.5 °F /  9.2 °C 29.80in /  1009hPa NE 2.0mph /  3.2km/h 7.0mph /  11.3km/h 83% 0.16in /  4.1mm
16:54 53.5 °F /  11.9 °C 48.5 °F /  9.2 °C 29.80in /  1009hPa NE 1.0mph /  1.6km/h 9.0mph /  14.5km/h 83% 0.16in /  4.1mm
16:59 53.9 °F /  12.2 °C 48.9 °F /  9.4 °C 29.80in /  1009hPa ENE 2.0mph /  3.2km/h 9.0mph /  14.5km/h 83% 0.16in /  4.1mm
17:04 54.4 °F /  12.4 °C 48.7 °F /  9.3 °C 29.80in /  1009hPa NNE 3.0mph /  4.8km/h 9.0mph /  14.5km/h 81% 0.16in /  4.1mm
17:09 54.6 °F /  12.6 °C 48.2 °F /  9 °C 29.80in /  1009hPa NNE 4.0mph /  6.4km/h 10.0mph /  16.1km/h 79% 0.16in /  4.1mm
17:14 54.5 °F /  12.5 °C 47.8 °F /  8.8 °C 29.80in /  1009hPa NNE 6.0mph /  9.7km/h 12.0mph /  19.3km/h 78% 0.16in /  4.1mm
17:19 54.6 °F /  12.6 °C 48.2 °F /  9 °C 29.80in /  1009hPa NE 1.0mph /  1.6km/h 12.0mph /  19.3km/h 79% 0.16in /  4.1mm
17:24 54.5 °F /  12.5 °C 47.8 °F /  8.8 °C 29.80in /  1009hPa NNE 3.0mph /  4.8km/h 8.0mph /  12.9km/h 78% 0.16in /  4.1mm
17:29 55.1 °F /  12.8 °C 49.0 °F /  9.4 °C 29.80in /  1009hPa NNE 2.0mph /  3.2km/h 8.0mph /  12.9km/h 80% 0.16in /  4.1mm
17:34 55.5 °F /  13.1 °C 47.7 °F /  8.7 °C 29.80in /  1009hPa NE 3.0mph /  4.8km/h 11.0mph /  17.7km/h 75% 0.16in /  4.1mm
17:39 55.3 °F /  12.9 °C 47.5 °F /  8.6 °C 29.80in /  1009hPa NNE 5.0mph /  8km/h 11.0mph /  17.7km/h 75% 0.16in /  4.1mm
17:44 54.8 °F /  12.7 °C 47.4 °F /  8.6 °C 29.80in /  1009hPa NE 3.0mph /  4.8km/h 13.0mph /  20.9km/h 76% 0.16in /  4.1mm
17:49 54.4 °F /  12.4 °C 47.0 °F /  8.3 °C 29.80in /  1009hPa NE 4.0mph /  6.4km/h 13.0mph /  20.9km/h 76% 0.16in /  4.1mm
17:54 54.2 °F /  12.3 °C 47.2 °F /  8.4 °C 29.80in /  1009hPa NNE 3.0mph /  4.8km/h 10.0mph /  16.1km/h 77% 0.16in /  4.1mm
17:59 54.1 °F /  12.3 °C 47.1 °F /  8.4 °C 29.80in /  1009hPa NE 2.0mph /  3.2km/h 8.0mph /  12.9km/h 77% 0.16in /  4.1mm
18:04 53.9 °F /  12.2 °C 46.9 °F /  8.3 °C 29.80in /  1009hPa NE 1.0mph /  1.6km/h 8.0mph /  12.9km/h 77% 0.16in /  4.1mm
18:09 53.8 °F /  12.1 °C 46.8 °F /  8.2 °C 29.80in /  1009hPa NE 3.0mph /  4.8km/h 8.0mph /  12.9km/h 77% 0.16in /  4.1mm
18:14 54.0 °F /  12.2 °C 47.0 °F /  8.3 °C 29.80in /  1009hPa NNE 2.0mph /  3.2km/h 7.0mph /  11.3km/h 77% 0.16in /  4.1mm
18:24 54.1 °F /  12.3 °C 47.1 °F /  8.4 °C 29.80in /  1009hPa NE 1.0mph /  1.6km/h 8.0mph /  12.9km/h 77% 0.16in /  4.1mm
18:29 54.1 °F /  12.3 °C 47.1 °F /  8.4 °C 29.81in /  1009.4hPa NNE 1.0mph /  1.6km/h 10.0mph /  16.1km/h 77% 0.16in /  4.1mm
18:34 54.1 °F /  12.3 °C 47.4 °F /  8.6 °C 29.81in /  1009.4hPa Calm   10.0mph /  16.1km/h 78% 0.16in /  4.1mm
18:39 54.0 °F /  12.2 °C 47.0 °F /  8.3 °C 29.81in /  1009.4hPa Calm   6.0mph /  9.7km/h 77% 0.16in /  4.1mm
18:44 53.9 °F /  12.2 °C 46.9 °F /  8.3 °C 29.81in /  1009.4hPa ENE 1.0mph /  1.6km/h 7.0mph /  11.3km/h 77% 0.16in /  4.1mm
18:49 53.7 °F /  12.1 °C 46.7 °F /  8.2 °C 29.81in /  1009.4hPa Calm   7.0mph /  11.3km/h 77% 0.16in /  4.1mm
18:54 53.5 °F /  11.9 °C 46.5 °F /  8.1 °C 29.81in /  1009.4hPa ENE 1.0mph /  1.6km/h 7.0mph /  11.3km/h 77% 0.16in /  4.1mm
18:59 53.4 °F /  11.9 °C 46.7 °F /  8.2 °C 29.81in /  1009.4hPa Calm   7.0mph /  11.3km/h 78% 0.16in /  4.1mm
19:04 53.3 °F /  11.8 °C 46.6 °F /  8.1 °C 29.81in /  1009.4hPa NNE 2.0mph /  3.2km/h 6.0mph /  9.7km/h 78% 0.16in /  4.1mm
19:09 53.1 °F /  11.7 °C 46.4 °F /  8 °C 29.81in /  1009.4hPa NNE 1.0mph /  1.6km/h 6.0mph /  9.7km/h 78% 0.16in /  4.1mm
19:14 53.0 °F /  11.7 °C 46.7 °F /  8.2 °C 29.82in /  1009.7hPa NE 1.0mph /  1.6km/h 5.0mph /  8km/h 79% 0.16in /  4.1mm
19:19 52.8 °F /  11.6 °C 46.5 °F /  8.1 °C 29.82in /  1009.7hPa NNE 2.0mph /  3.2km/h 7.0mph /  11.3km/h 79% 0.16in /  4.1mm
19:24 52.7 °F /  11.5 °C 46.4 °F /  8 °C 29.82in /  1009.7hPa Calm   7.0mph /  11.3km/h 79% 0.16in /  4.1mm
19:29 52.6 °F /  11.4 °C 46.3 °F /  7.9 °C 29.82in /  1009.7hPa Calm   10.0mph /  16.1km/h 79% 0.16in /  4.1mm
19:35 52.6 °F /  11.4 °C 45.9 °F /  7.7 °C 29.82in /  1009.7hPa Calm   10.0mph /  16.1km/h 78% 0.16in /  4.1mm
19:44 52.5 °F /  11.4 °C 45.8 °F /  7.7 °C 29.82in /  1009.7hPa NNE 1.0mph /  1.6km/h 7.0mph /  11.3km/h 78% 0.16in /  4.1mm
19:49 52.6 °F /  11.4 °C 45.9 °F /  7.7 °C 29.82in /  1009.7hPa NE 1.0mph /  1.6km/h 6.0mph /  9.7km/h 78% 0.16in /  4.1mm
19:54 52.6 °F /  11.4 °C 45.9 °F /  7.7 °C 29.82in /  1009.7hPa NE 1.0mph /  1.6km/h 10.0mph /  16.1km/h 78% 0.16in /  4.1mm
19:59 52.5 °F /  11.4 °C 45.8 °F /  7.7 °C 29.82in /  1009.7hPa Calm   10.0mph /  16.1km/h 78% 0.16in /  4.1mm
20:04 52.3 °F /  11.3 °C 45.7 °F /  7.6 °C 29.83in /  1010hPa Calm   8.0mph /  12.9km/h 78% 0.16in /  4.1mm
20:14 51.9 °F /  11.1 °C 45.9 °F /  7.7 °C 29.83in /  1010hPa North 1.0mph /  1.6km/h 4.0mph /  6.4km/h 80% 0.16in /  4.1mm
20:19 51.7 °F /  10.9 °C 45.4 °F /  7.4 °C 29.83in /  1010hPa NNE 1.0mph /  1.6km/h 6.0mph /  9.7km/h 79% 0.16in /  4.1mm
20:24 51.6 °F /  10.9 °C 45.6 °F /  7.6 °C 29.83in /  1010hPa NE 1.0mph /  1.6km/h 7.0mph /  11.3km/h 80% 0.16in /  4.1mm
20:29 51.4 °F /  10.8 °C 45.4 °F /  7.4 °C 29.83in /  1010hPa Calm   7.0mph /  11.3km/h 80% 0.16in /  4.1mm
20:34 51.2 °F /  10.7 °C 45.6 °F /  7.6 °C 29.83in /  1010hPa Calm   3.0mph /  4.8km/h 81% 0.16in /  4.1mm
20:39 50.8 °F /  10.4 °C 45.5 °F /  7.5 °C 29.83in /  1010hPa Calm   1.0mph /  1.6km/h 82% 0.16in /  4.1mm
20:44 50.5 °F /  10.3 °C 45.2 °F /  7.3 °C 29.83in /  1010hPa Calm   2.0mph /  3.2km/h 82% 0.16in /  4.1mm
20:54 50.2 °F /  10.1 °C 45.2 °F /  7.3 °C 29.83in /  1010hPa Calm   4.0mph /  6.4km/h 83% 0.16in /  4.1mm
20:59 50.1 °F /  10.1 °C 45.1 °F /  7.3 °C 29.83in /  1010hPa Calm   4.0mph /  6.4km/h 83% 0.16in /  4.1mm
21:04 49.9 °F /  9.9 °C 45.3 °F /  7.4 °C 29.83in /  1010hPa Calm   4.0mph /  6.4km/h 84% 0.16in /  4.1mm
21:09 49.5 °F /  9.7 °C 44.9 °F /  7.2 °C 29.83in /  1010hPa Calm     84% 0.16in /  4.1mm
21:14 49.2 °F /  9.6 °C 44.9 °F /  7.2 °C 29.83in /  1010hPa Calm     85% 0.16in /  4.1mm
21:19 49.1 °F /  9.5 °C 44.8 °F /  7.1 °C 29.84in /  1010.4hPa NNE 1.0mph /  1.6km/h 5.0mph /  8km/h 85% 0.16in /  4.1mm
21:24 49.0 °F /  9.4 °C 44.7 °F /  7.1 °C 29.84in /  1010.4hPa Calm   5.0mph /  8km/h 85% 0.16in /  4.1mm
21:29 48.9 °F /  9.4 °C 44.6 °F /  7 °C 29.84in /  1010.4hPa Calm   2.0mph /  3.2km/h 85% 0.16in /  4.1mm
21:34 48.8 °F /  9.3 °C 44.8 °F /  7.1 °C 29.84in /  1010.4hPa Calm     86% 0.16in /  4.1mm
21:39 48.4 °F /  9.1 °C 44.1 °F /  6.7 °C 29.84in /  1010.4hPa Calm     85% 0.16in /  4.1mm
21:44 47.9 °F /  8.8 °C 43.9 °F /  6.6 °C 29.84in /  1010.4hPa Calm     86% 0.16in /  4.1mm
21:49 47.7 °F /  8.7 °C 43.7 °F /  6.5 °C 29.84in /  1010.4hPa Calm     86% 0.16in /  4.1mm
21:54 47.5 °F /  8.6 °C 43.8 °F /  6.6 °C 29.84in /  1010.4hPa Calm     87% 0.16in /  4.1mm
21:59 47.2 °F /  8.4 °C 43.5 °F /  6.4 °C 29.84in /  1010.4hPa Calm     87% 0.16in /  4.1mm
22:04 47.0 °F /  8.3 °C 43.3 °F /  6.3 °C 29.85in /  1010.7hPa Calm     87% 0.16in /  4.1mm
22:09 46.6 °F /  8.1 °C 43.2 °F /  6.2 °C 29.84in /  1010.4hPa Calm     88% 0.16in /  4.1mm
22:14 46.2 °F /  7.9 °C 42.5 °F /  5.8 °C 29.84in /  1010.4hPa Calm     87% 0.16in /  4.1mm
22:19 46.0 °F /  7.8 °C 42.6 °F /  5.9 °C 29.84in /  1010.4hPa Calm     88% 0.16in /  4.1mm
22:24 45.8 °F /  7.7 °C 42.5 °F /  5.8 °C 29.84in /  1010.4hPa Calm     88% 0.16in /  4.1mm
22:29 45.8 °F /  7.7 °C 42.7 °F /  5.9 °C 29.84in /  1010.4hPa Calm     89% 0.16in /  4.1mm
22:34 45.9 °F /  7.7 °C 42.8 °F /  6 °C 29.84in /  1010.4hPa Calm     89% 0.16in /  4.1mm
22:39 46.0 °F /  7.8 °C 43.2 °F /  6.2 °C 29.84in /  1010.4hPa Calm     90% 0.16in /  4.1mm
22:44 46.2 °F /  7.9 °C 43.4 °F /  6.3 °C 29.84in /  1010.4hPa Calm     90% 0.16in /  4.1mm
22:49 46.3 °F /  7.9 °C 43.5 °F /  6.4 °C 29.83in /  1010hPa Calm     90% 0.16in /  4.1mm
22:54 46.4 °F /  8 °C 43.6 °F /  6.4 °C 29.83in /  1010hPa Calm     90% 0.16in /  4.1mm
22:59 46.4 °F /  8 °C 43.9 °F /  6.6 °C 29.83in /  1010hPa Calm     91% 0.16in /  4.1mm
23:04 46.3 °F /  7.9 °C 43.8 °F /  6.6 °C 29.84in /  1010.4hPa Calm     91% 0.16in /  4.1mm
23:09 46.4 °F /  8 °C 43.9 °F /  6.6 °C 29.84in /  1010.4hPa Calm     91% 0.16in /  4.1mm
23:14 46.3 °F /  7.9 °C 43.8 °F /  6.6 °C 29.84in /  1010.4hPa Calm     91% 0.16in /  4.1mm
23:19 46.3 °F /  7.9 °C 43.8 °F /  6.6 °C 29.84in /  1010.4hPa Calm     91% 0.16in /  4.1mm
23:24 46.2 °F /  7.9 °C 43.7 °F /  6.5 °C 29.84in /  1010.4hPa Calm     91% 0.16in /  4.1mm
23:29 46.1 °F /  7.8 °C 43.6 °F /  6.4 °C 29.84in /  1010.4hPa Calm     91% 0.16in /  4.1mm
23:34 46.0 °F /  7.8 °C 43.5 °F /  6.4 °C 29.84in /  1010.4hPa Calm     91% 0.16in /  4.1mm
23:44 45.8 °F /  7.7 °C 43.6 °F /  6.4 °C 29.84in /  1010.4hPa Calm     92% 0.16in /  4.1mm
23:49 46.0 °F /  7.8 °C 43.8 °F /  6.6 °C 29.84in /  1010.4hPa Calm     92% 0.16in /  4.1mm
23:54 46.2 °F /  7.9 °C 44.0 °F /  6.7 °C 29.84in /  1010.4hPa Calm     92% 0.16in /  4.1mm
23:59 46.2 °F /  7.9 °C 44.3 °F /  6.8 °C 29.84in /  1010.4hPa Calm     93% 0.16in /  4.1mm
Westford Weather
Compliments of Weather Underground

 
 
Current Radar Loop:

Copyright © WestfordWeather.net 2007-2014. All rights reserved.